Portada
METAR-TAF:

METAR-TAF

Aeroports :

Aeroport de Lampedusa

Lampedusa, Itàlia

latitud: 35-30N, longitud: 012-36E, altitud: 16 m

Observació

L'informe es va fer fa 19 minuts, a les 08:50 UTC
Vent 17 kt del Nord
Temperatura 23°C
Humitat 83%
Pressió 1004 hPa
Visibilitat 10 km o més

METAR: LICD 050850Z AUTO 35017KT 9999 BKN023/// 23/20 Q1004

Hora: 11:09 (09:09 UTC)

Pronòstic

L'informe es va fer fa 4 hores i 9 minuts, a les 05:00 UTC
Pronòstic vàlid del 05 a les 06 UTC al 06 a les 06 UTC
Vent 20 kt del Nord amb ràfegues de 30 kt
Visibilitat 10 km o més
Núvols disperses a una alçada de 2000 ft

TAF: LICD 050500Z 0506/0606 35020G30KT 9999 SCT020

Observacions i pronòstics meteorològics de més de 4000 aeroports (METAR i TAF).

Les estacions disponibles són els punts grocs i vermells al mapa.

Posi el ratolí al punt desitjat per veure el nom de l'estació.

Feu clic per veure les observacions i els pronòstics meteorològics.

Per canviar el mapa: feu clic els botons verds amb una creu de color negre per apropar; al botó verd amb un guió per allunyar la imatge; o en les fletxes verdes per a mapes adjacents.


METAR-TAF: